Triple 9 Models Price List

 


 Ref NoDescriptionRRP
£
ScaleDue Date
TRN 18000Display Case 1:18 (L320 x H115 x W160mm) 10.99 1:18 RELEASED 
TRN 18001Display Case 1:18 - Exclusive - Wood base Glass top 74.99 1:18 RELEASED 
TRN 1800100Honda Civic EF3 Si 1987 silver 66.99 1:18 RELEASED 
TRN 1800120Opel Kadett C2 1977 2dr - White 64.99 1:18 RELEASED 
TRN 1800121Opel Kadett C2 1977 4dr - Gold 55.99 1:18 RELEASED 
TRN 1800122Opel Kadett C2 1977 2dr - Red 55.99 1:18 RELEASED 
TRN 1800131Ford Escort RS 1600 MKI #19 MC72 Makinen 64.99 1:18 RELEASED 
TRN 1800132Ford Escort RS 1600 MKI #7 Safari Rally 72 74.99 1:18 RELEASED 
TRN 1800133Ford Escort RS 1600 MKI red/white stripes 74.99 1:18 RELEASED 
TRN 1800140Jeep Willys 'Casablanca' Dessert Sand 1943 61.99 1:18 RELEASED 
TRN 1800140AJeep Willys Dessert Sand 1943 Dirty versio 61.99 1:18 RELEASED 
TRN 1800141Jeep Willys US Army 1942 - Army Green 49.99 1:18 RELEASED 
TRN 1800141AJeep Willys US Army Green inc 4 figs 87.99 1:18 RELEASED 
TRN 1800141BJeep Willys US Military Police Green muddy 61.99 1:18 RELEASED 
TRN 1800142Jeep Willys 1941 - Green Military Police 61.99 1:18 RELEASED 
TRN 1800142AJeep Willys Military Police inc 4 figs 107.99 1:18 2016 
TRN 1800142BJeep Willys 1941 - Green Military Police Muddy 61.99 1:18 RELEASED 
TRN 1800151Toyota Land Cruiser FJ40, yellow, 1967 Opening fr doors, roofrack, spots 80.99 1:18 RELEASED 
TRN 1800153Toyota Land Cruiser FJ40, red, 1967 closed sof top 80.99 1:18 RELEASED 
TRN 1800160MGA MKI A1500 open convertible,red, 1957 with luggage rack 80.99 1:18 RELEASED 
TRN 1800161MGA MKI A1500 closed hard top, grey, 1957  80.99 1:18 RELEASED 
TRN 1800162MG EX182 Racing Green 24 hr LM1955 #41 Locket/Miles 80.99 1:18 RELEASED 
TRN 1800163MG EX182 Racing Green 24 hr LM1955 #64 Lund/ Waeffler 80.99 1:18 RELEASED 
TRN 1800164MGA MKII A1600 open 1961, white  79.99 1:18 RELEASED 
TRN 1800165MGA MKI Twin Cam 1959, GREEN  79.99 1:18 RELEASED 
TRN 1800171Lancia Delta HF Integrale 16v, 1989, red  62.99 1:18 RELEASED 
TRN 1800172Lancia Delta HF Integrale 16v, 1989, grey  62.99 1:18 RELEASED 
TRN 1800175Lancia Stratos San Remo winner 1974 #2 S.Munari/ M.Mannucci 62.99 1:18 RELEASED 
TRN 1800180Nissan Skyline GT-R KPGC10 - Silver 88.99 1:18 RELEASED 
TRN 1800181Nissan Skyline GT-R KPGC10 - White 88.99 1:18 RELEASED 
TRN 1800182Nissan Skyline GT-R KPGC10 - Red 88.99 1:18 RELEASED 
TRN 1800183Toyota 2000GT 1967 - White 88.99 1:18 RELEASED 
TRN 1800184Toyota 2000GT 1967 - Red 88.99 1:18 RELEASED 
TRN 1800185Toyota 2000GT 24H Fuji #1 1967 White/Red 88.99 1:18 2016 
TRN 1800186Toyota 2000GT Japan Police 88.99 1:18 RELEASED 
TRN 1800187Mazda Cosmo Sport - White 88.99 1:18 RELEASED 
TRN 1800188Mazda Cosmo Sport - Red 88.99 1:18 RELEASED 
TRN 1800189Mazda Cosmo Sport Japanese Police Blk/Whit 88.99 1:18 2016 
TRN 1800190Honda S800 Soft Top 1966 - Red 88.99 1:18 RELEASED 
TRN 1800191Honda S800 Soft Top 1966 - Yellow 88.99 1:18 RELEASED 
TRN 1800192Honda S800 Soft Top 1966 - White 88.99 1:18 RELEASED 
TRN 1800193Honda S800 closed conv Racing #25, 1966  88.99 1:18 RELEASED 
TRN 1800194Mazda MX-5 removable Soft Top 2015 - White 88.99 1:18 RELEASED 
TRN 1800195Mazda MX-5 removable Soft Top 2015 - Red 88.99 1:18 RELEASED 
TRN 1800196Mazda MX-5 removable soft top 2015 Black 88.99 1:18 RELEASED 
TRN 1800197Mazda MX-5 NR-A #55 Conv 2015 Black/White 88.99 1:18 RELEASED 
TRN 1800198Nissan Skyline GT-R 2017 - Orange 88.99 1:18 RELEASED 
TRN 1800199Nissan Skyline GT-R 2017 - Silver 88.99 1:18 RELEASED 
TRN 1800200Toyota Celica Tour de Corse 1991 #15 Fina 62.99 1:18 RELEASED 
TRN 1800205Peugeot 205 T16 Tour de Corse 1985 #14 B.Darniche/ A. Mahe 62.99 1:18 FEB 18 
TRN 1800210Mitsubisho Lancer EVO VI, 1999 Canberra #2 Y. Kataoka/ S. Hayashi winner 62.99 1:18 FEB 18 
TRN 1800215Lancia Delta S4, San Remo, 1986 #7 Tabaton 62.99 1:18 FEB 18 
TRN 189900Car Stoppers for 1/18 cars in cases Stops cars moving 10pce per pack 0.25 1:18 RELEASED 
TRN 189910Display Case - With 4 LED - 1:18 22.99 1:18 RELEASED 
TRN 189922Display Case - W/Silver Base & 4 LED- 1:18 22.99 1:18 RELEASED 
TRN 24000Display Case 1:24 7.49 1:24 RELEASED 
TRN 2400100VW Samba Bus 'Amsterdam' - Red/White 16.99 1:24 2016 
TRN 2400101VW Samba Bus 'Holland' - Blue/White 16.99 1:24 2016 
TRN 43000Display Case 1:43 3.75 1:43 RELEASED 
TRN 43021VW T2 Combi 1976 37.99 1:43 RELEASED 
TRN 43022Triumph Herald Saloon 1959 - Dk Green 37.99 1:43 RELEASED 
TRN 43028Cadillac Deville Sedan 1977 52.99 1:43 RELEASED 
TRN 43031Facel Vega Excellence 1960 40.99 1:43 RELEASED 
TRN 43033Bentley Mk VI 1950 40.99 1:43 WSL2 
TRN 43036Hyundai Veloster - Red 37.99 1:43 RELEASED 
TRN 43040Volvo 780 Bertone 1986 - Silver 37.99 1:43 RELEASED 
TRN 43041Volvo 220 Amazone 1966 - Blue Grey 37.99 1:43 RELEASED 
TRN 43042Saab 96 1964 - Blue 37.99 1:43 RELEASED 
TRN 43047Volvo P1900 Sport Convertible 1955 Lt Blue 37.99 1:43 RELEASED 
TRN 43050Ford F-75 Pick-up 1980 - Blue 37.99 1:43 RELEASED 
TRN 43054Opel Corsa 1994 - Black 37.99 1:43 RELEASED 
TRN 43055Volvo 343 1976 - Yellow 40.99 1:43 RELEASED 
TRN 43056Mazda 323 Hatchback 1982 - Red 37.99 1:43 RELEASED 
TRN 43057Saab 92B - Light Blue 37.99 1:43 RELEASED 
TRN 43062Volvo 480 Turbo - Red 37.99 1:43 RELEASED 
TRN 43063Volvo 440 Turbo 1988 - Red 39.99 1:43 RELEASED 
TRN 43065Volvo 480 Turbo Cabriolet 1990 - Silver 39.99 1:43 RELEASED 
TRN 43066Saab 900i 1987 - Black 39.99 1:43 RELEASED 
TRN 43067Saab 95 1961 - White (Red Rims) 39.99 1:43 RELEASED 
TRN 43068Saab 900 V6 1994 - Silver-Blue 39.99 1:43 RELEASED 
TRN 4399052BK-43Display Case & 2 LED Lamps (Black Base) 1:24/1:43/1:64 11.99 1:24/1:43/1:64 RI JUNE 18 
TRN 4399052S-43Display Case & 2 LED Lamps (Silver Base) 1:24/1:43/1:64 11.99 1:24/1:43/1:64 RELEASED 
TRN 4399052W-43Display Case & 2 LED Lamps (White Base) 1:24/1:43/1:64 11.99 1:24/1:43/1:64 RELEASED 
TRN 69926Display Case 1:6 - LED lights - Micro USB power 59.99 1:6 RELEASED 
TRN 69927Display Case 1:18 - LED lights - Micro USB power - 3 cars - 2 shelves 59.99 1:18 RELEASED 
TRN 69927KShowcase with 2 shelves L29xW19xH44cm LED lights in base and top. Black surround 58.99 1:18 RELEASED 
TRN 69927WShowcase with 2 shelves L29xW19xH44cm LED lights in base and top. White surround 58.99 1:18 RELEASED 
TRN 69929KShowcase 1 shelf/turntable L32xW32xH36cm LED lit.. Holds 4x 1/18th. Black surround 99.99 1:18 FEB 18 
TRN 69929SShowcase 1 shelf/turntable L32xW32xH36cm LED lit.. Holds 4x 1/18th. Silver surround 99.99 1:18 FEB 18 
TRN 69929WShowcase 1 shelf/turntable L32xW32xH36cm LED lit.. Holds 4x 1/18th. White surround 99.99 1:18 FEB 18 
TRN 7001BKLED Light stand, bendable black with bulbs  9.99 N/A RELEASED 
TRN 7001SLED Light stand, bendable silve with bulbs  9.99 N/A RELEASED 
TRN E1800500Ferrari 158 F1 Team NART #7 Mex64 Surtees,  276.99 1:18 2017 
 TRN E1800501Ferrari 158 F1 #8 Aus64 - Bandini 276.99 1:18 2017 
 TRN E1800502Ferrari 158 F1 #7 Ger64 - Surtees 276.99 1:18 2017 
TRN E1800503Ferrari 158 F1 #2 Ita64 - Surtees 276.99 1:18 2017 
 TRN E1800504Ferrari 156 F1 Team NART #18, 1964, Rodrig  276.99 1:18 2017 
 TRN E1800505Ferrari 158 F1 #7 Hol64 - Surtees Zandvor 276.99 1:18 2017 
TRN P10024Subaru BRZ 2014 - White 29.99 1:43 WSL2 

back to product lists

 
© 2018 John Ayrey Diecast
John Ayrey Die-casts Ltd. Discovery House, Unit 8a Sapper Jordan Rossi Park, Baildon, BD17 7AX Registered in England and Wales Company No. 3234257